sensor_id;sensor_type;location;lat;lon;timestamp;temperature;humidity
39825;DHT22;25503;52.532;13.640;2023-07-08T00:00:19;17.70;99.90
39825;DHT22;25503;52.532;13.640;2023-07-08T00:02:45;17.70;99.90
39825;DHT22;25503;52.532;13.640;2023-07-08T00:05:13;17.60;99.90
39825;DHT22;25503;52.532;13.640;2023-07-08T00:07:40;17.70;99.90
39825;DHT22;25503;52.532;13.640;2023-07-08T00:10:32;17.60;99.90
39825;DHT22;25503;52.532;13.640;2023-07-08T00:12:58;17.60;99.90
39825;DHT22;25503;52.532;13.640;2023-07-08T00:15:29;17.50;99.90
39825;DHT22;25503;52.532;13.640;2023-07-08T00:17:55;17.40;99.90
39825;DHT22;25503;52.532;13.640;2023-07-08T00:20:37;17.30;99.90
39825;DHT22;25503;52.532;13.640;2023-07-08T00:23:04;17.30;99.90
39825;DHT22;25503;52.532;13.640;2023-07-08T00:25:31;17.20;99.90
39825;DHT22;25503;52.532;13.640;2023-07-08T00:27:57;17.10;99.90
39825;DHT22;25503;52.532;13.640;2023-07-08T00:30:27;17.00;99.90
39825;DHT22;25503;52.532;13.640;2023-07-08T00:32:54;16.90;99.90
39825;DHT22;25503;52.532;13.640;2023-07-08T00:35:22;16.90;99.90
39825;DHT22;25503;52.532;13.640;2023-07-08T00:40:20;16.90;99.90
39825;DHT22;25503;52.532;13.640;2023-07-08T00:42:45;16.90;99.90
39825;DHT22;25503;52.532;13.640;2023-07-08T00:45:41;16.90;99.90
39825;DHT22;25503;52.532;13.640;2023-07-08T00:48:28;16.80;99.90
39825;DHT22;25503;52.532;13.640;2023-07-08T00:50:55;16.80;99.90
39825;DHT22;25503;52.532;13.640;2023-07-08T00:53:32;16.70;99.90
39825;DHT22;25503;52.532;13.640;2023-07-08T00:56:02;16.70;99.90
39825;DHT22;25503;52.532;13.640;2023-07-08T00:58:35;16.70;99.90
39825;DHT22;25503;52.532;13.640;2023-07-08T01:01:05;16.60;99.90
39825;DHT22;25503;52.532;13.640;2023-07-08T01:03:31;16.50;99.90
39825;DHT22;25503;52.532;13.640;2023-07-08T01:05:59;16.40;99.90
39825;DHT22;25503;52.532;13.640;2023-07-08T01:08:27;16.40;99.90
39825;DHT22;25503;52.532;13.640;2023-07-08T01:10:57;16.40;99.90
39825;DHT22;25503;52.532;13.640;2023-07-08T01:13:24;16.40;99.90
39825;DHT22;25503;52.532;13.640;2023-07-08T01:15:50;16.40;99.90
39825;DHT22;25503;52.532;13.640;2023-07-08T01:18:17;16.40;99.90
39825;DHT22;25503;52.532;13.640;2023-07-08T01:20:47;16.40;99.90
39825;DHT22;25503;52.532;13.640;2023-07-08T01:23:17;16.40;99.90
39825;DHT22;25503;52.532;13.640;2023-07-08T01:25:44;16.30;99.90
39825;DHT22;25503;52.532;13.640;2023-07-08T01:28:10;16.30;99.90
39825;DHT22;25503;52.532;13.640;2023-07-08T01:30:36;16.30;99.90
39825;DHT22;25503;52.532;13.640;2023-07-08T01:33:07;16.30;99.90
39825;DHT22;25503;52.532;13.640;2023-07-08T01:35:36;16.30;99.90
39825;DHT22;25503;52.532;13.640;2023-07-08T01:38:03;16.20;99.90
39825;DHT22;25503;52.532;13.640;2023-07-08T01:40:35;16.20;99.90
39825;DHT22;25503;52.532;13.640;2023-07-08T01:43:02;16.20;99.90
39825;DHT22;25503;52.532;13.640;2023-07-08T01:45:33;16.10;99.90
39825;DHT22;25503;52.532;13.640;2023-07-08T01:48:07;16.10;99.90
39825;DHT22;25503;52.532;13.640;2023-07-08T01:50:37;16.10;99.90
39825;DHT22;25503;52.532;13.640;2023-07-08T01:53:10;16.00;99.90
39825;DHT22;25503;52.532;13.640;2023-07-08T01:55:37;15.90;99.90
39825;DHT22;25503;52.532;13.640;2023-07-08T01:58:02;15.90;99.90
39825;DHT22;25503;52.532;13.640;2023-07-08T02:00:28;15.80;99.90
39825;DHT22;25503;52.532;13.640;2023-07-08T02:02:54;15.80;99.90
39825;DHT22;25503;52.532;13.640;2023-07-08T02:05:19;15.80;99.90
39825;DHT22;25503;52.532;13.640;2023-07-08T02:07:45;15.80;99.90
39825;DHT22;25503;52.532;13.640;2023-07-08T02:10:11;15.80;99.90
39825;DHT22;25503;52.532;13.640;2023-07-08T02:12:36;15.80;99.90
39825;DHT22;25503;52.532;13.640;2023-07-08T02:15:02;15.80;99.90
39825;DHT22;25503;52.532;13.640;2023-07-08T02:17:28;15.80;99.90
39825;DHT22;25503;52.532;13.640;2023-07-08T02:19:55;15.80;99.90
39825;DHT22;25503;52.532;13.640;2023-07-08T02:22:21;15.80;99.90
39825;DHT22;25503;52.532;13.640;2023-07-08T02:24:46;15.70;99.90
39825;DHT22;25503;52.532;13.640;2023-07-08T02:27:13;15.70;99.90
39825;DHT22;25503;52.532;13.640;2023-07-08T02:29:39;15.70;99.90
39825;DHT22;25503;52.532;13.640;2023-07-08T02:32:05;15.70;99.90
39825;DHT22;25503;52.532;13.640;2023-07-08T02:34:31;15.60;99.90
39825;DHT22;25503;52.532;13.640;2023-07-08T02:36:56;15.60;99.90
39825;DHT22;25503;52.532;13.640;2023-07-08T02:39:22;15.60;99.90
39825;DHT22;25503;52.532;13.640;2023-07-08T02:41:48;15.50;99.90
39825;DHT22;25503;52.532;13.640;2023-07-08T02:44:14;15.50;99.90
39825;DHT22;25503;52.532;13.640;2023-07-08T02:46:39;15.30;99.90
39825;DHT22;25503;52.532;13.640;2023-07-08T02:49:05;15.20;99.90
39825;DHT22;25503;52.532;13.640;2023-07-08T02:51:31;15.20;99.90
39825;DHT22;25503;52.532;13.640;2023-07-08T02:53:57;15.10;99.90
39825;DHT22;25503;52.532;13.640;2023-07-08T02:56:22;15.10;99.90
39825;DHT22;25503;52.532;13.640;2023-07-08T02:58:48;15.10;99.90
39825;DHT22;25503;52.532;13.640;2023-07-08T03:01:14;15.10;99.90
39825;DHT22;25503;52.532;13.640;2023-07-08T03:03:44;15.20;99.90
39825;DHT22;25503;52.532;13.640;2023-07-08T03:06:10;15.20;99.90
39825;DHT22;25503;52.532;13.640;2023-07-08T03:08:36;15.20;99.90
39825;DHT22;25503;52.532;13.640;2023-07-08T03:11:03;15.20;99.90
39825;DHT22;25503;52.532;13.640;2023-07-08T03:13:30;15.20;99.90
39825;DHT22;25503;52.532;13.640;2023-07-08T03:15:58;15.20;99.90
39825;DHT22;25503;52.532;13.640;2023-07-08T03:18:25;15.20;99.90
39825;DHT22;25503;52.532;13.640;2023-07-08T03:20:52;15.20;99.90
39825;DHT22;25503;52.532;13.640;2023-07-08T03:23:18;15.10;99.90
39825;DHT22;25503;52.532;13.640;2023-07-08T03:25:44;15.20;99.90
39825;DHT22;25503;52.532;13.640;2023-07-08T03:28:10;15.20;99.90
39825;DHT22;25503;52.532;13.640;2023-07-08T03:30:41;15.20;99.90
39825;DHT22;25503;52.532;13.640;2023-07-08T03:33:07;15.20;99.90
39825;DHT22;25503;52.532;13.640;2023-07-08T03:35:33;15.20;99.90
39825;DHT22;25503;52.532;13.640;2023-07-08T03:37:58;15.20;99.90
39825;DHT22;25503;52.532;13.640;2023-07-08T03:40:24;15.20;99.90
39825;DHT22;25503;52.532;13.640;2023-07-08T03:42:50;15.20;99.90
39825;DHT22;25503;52.532;13.640;2023-07-08T03:45:16;15.20;99.90
39825;DHT22;25503;52.532;13.640;2023-07-08T03:47:41;15.10;99.90
39825;DHT22;25503;52.532;13.640;2023-07-08T03:50:22;15.10;99.90
39825;DHT22;25503;52.532;13.640;2023-07-08T03:52:50;15.20;99.90
39825;DHT22;25503;52.532;13.640;2023-07-08T03:55:16;15.20;99.90
39825;DHT22;25503;52.532;13.640;2023-07-08T03:57:42;15.20;99.90
39825;DHT22;25503;52.532;13.640;2023-07-08T04:00:08;15.20;99.90
39825;DHT22;25503;52.532;13.640;2023-07-08T04:02:41;15.30;99.90
39825;DHT22;25503;52.532;13.640;2023-07-08T04:05:20;15.30;99.90
39825;DHT22;25503;52.532;13.640;2023-07-08T04:07:47;15.40;99.90
39825;DHT22;25503;52.532;13.640;2023-07-08T04:10:13;15.40;99.90
39825;DHT22;25503;52.532;13.640;2023-07-08T04:12:39;15.40;99.90
39825;DHT22;25503;52.532;13.640;2023-07-08T04:15:07;15.50;99.90
39825;DHT22;25503;52.532;13.640;2023-07-08T04:17:32;15.50;99.90
39825;DHT22;25503;52.532;13.640;2023-07-08T04:19:58;15.60;99.90
39825;DHT22;25503;52.532;13.640;2023-07-08T04:22:31;15.70;99.90
39825;DHT22;25503;52.532;13.640;2023-07-08T04:24:57;15.70;99.90
39825;DHT22;25503;52.532;13.640;2023-07-08T04:27:22;15.70;99.90
39825;DHT22;25503;52.532;13.640;2023-07-08T04:29:48;15.70;99.90
39825;DHT22;25503;52.532;13.640;2023-07-08T04:32:14;15.80;99.90
39825;DHT22;25503;52.532;13.640;2023-07-08T04:34:39;15.80;99.90
39825;DHT22;25503;52.532;13.640;2023-07-08T04:37:05;15.90;99.90
39825;DHT22;25503;52.532;13.640;2023-07-08T04:39:31;16.00;99.90
39825;DHT22;25503;52.532;13.640;2023-07-08T04:41:56;16.00;99.90
39825;DHT22;25503;52.532;13.640;2023-07-08T04:44:22;16.10;99.90
39825;DHT22;25503;52.532;13.640;2023-07-08T04:46:52;16.20;99.90
39825;DHT22;25503;52.532;13.640;2023-07-08T04:49:20;16.30;99.90
39825;DHT22;25503;52.532;13.640;2023-07-08T04:51:46;16.40;99.90
39825;DHT22;25503;52.532;13.640;2023-07-08T04:54:12;16.50;99.90
39825;DHT22;25503;52.532;13.640;2023-07-08T04:56:46;16.60;99.90
39825;DHT22;25503;52.532;13.640;2023-07-08T04:59:18;16.80;99.90
39825;DHT22;25503;52.532;13.640;2023-07-08T05:01:44;16.90;99.90
39825;DHT22;25503;52.532;13.640;2023-07-08T05:04:14;17.00;99.90
39825;DHT22;25503;52.532;13.640;2023-07-08T05:06:41;17.20;99.90
39825;DHT22;25503;52.532;13.640;2023-07-08T05:09:07;17.30;99.90
39825;DHT22;25503;52.532;13.640;2023-07-08T05:11:34;17.40;99.90
39825;DHT22;25503;52.532;13.640;2023-07-08T05:14:00;17.50;99.90
39825;DHT22;25503;52.532;13.640;2023-07-08T05:16:26;17.60;99.90
39825;DHT22;25503;52.532;13.640;2023-07-08T05:18:52;17.70;99.90
39825;DHT22;25503;52.532;13.640;2023-07-08T05:21:19;17.90;99.90
39825;DHT22;25503;52.532;13.640;2023-07-08T05:23:45;18.00;99.90
39825;DHT22;25503;52.532;13.640;2023-07-08T05:26:11;18.10;99.90
39825;DHT22;25503;52.532;13.640;2023-07-08T05:28:37;18.20;99.90
39825;DHT22;25503;52.532;13.640;2023-07-08T05:31:03;18.40;99.90
39825;DHT22;25503;52.532;13.640;2023-07-08T05:33:30;18.50;99.90
39825;DHT22;25503;52.532;13.640;2023-07-08T05:35:57;18.70;99.90
39825;DHT22;25503;52.532;13.640;2023-07-08T05:38:23;18.80;99.90
39825;DHT22;25503;52.532;13.640;2023-07-08T05:40:58;18.90;99.90
39825;DHT22;25503;52.532;13.640;2023-07-08T05:43:25;19.10;99.90
39825;DHT22;25503;52.532;13.640;2023-07-08T05:45:51;19.20;99.90
39825;DHT22;25503;52.532;13.640;2023-07-08T05:48:17;19.30;99.90
39825;DHT22;25503;52.532;13.640;2023-07-08T05:50:44;19.50;99.90
39825;DHT22;25503;52.532;13.640;2023-07-08T05:53:11;19.60;99.90
39825;DHT22;25503;52.532;13.640;2023-07-08T05:55:37;19.70;99.90
39825;DHT22;25503;52.532;13.640;2023-07-08T05:58:02;19.80;99.90
39825;DHT22;25503;52.532;13.640;2023-07-08T06:00:28;20.00;99.90
39825;DHT22;25503;52.532;13.640;2023-07-08T06:02:54;20.10;99.90
39825;DHT22;25503;52.532;13.640;2023-07-08T06:05:19;20.20;99.90
39825;DHT22;25503;52.532;13.640;2023-07-08T06:07:45;20.30;99.90
39825;DHT22;25503;52.532;13.640;2023-07-08T06:10:11;20.50;99.90
39825;DHT22;25503;52.532;13.640;2023-07-08T06:12:36;20.60;99.90
39825;DHT22;25503;52.532;13.640;2023-07-08T06:15:02;20.70;99.90
39825;DHT22;25503;52.532;13.640;2023-07-08T06:17:28;20.80;99.90
39825;DHT22;25503;52.532;13.640;2023-07-08T06:19:53;20.90;99.90
39825;DHT22;25503;52.532;13.640;2023-07-08T06:22:19;21.00;99.90
39825;DHT22;25503;52.532;13.640;2023-07-08T06:24:45;21.10;99.90
39825;DHT22;25503;52.532;13.640;2023-07-08T06:27:12;21.20;99.90
39825;DHT22;25503;52.532;13.640;2023-07-08T06:29:38;21.30;99.90
39825;DHT22;25503;52.532;13.640;2023-07-08T06:32:04;21.40;99.90
39825;DHT22;25503;52.532;13.640;2023-07-08T06:34:29;21.50;99.90
39825;DHT22;25503;52.532;13.640;2023-07-08T06:36:55;21.60;99.90
39825;DHT22;25503;52.532;13.640;2023-07-08T06:39:21;21.70;99.90
39825;DHT22;25503;52.532;13.640;2023-07-08T06:41:46;21.80;99.90
39825;DHT22;25503;52.532;13.640;2023-07-08T06:44:12;21.90;99.90
39825;DHT22;25503;52.532;13.640;2023-07-08T06:46:38;22.10;99.90
39825;DHT22;25503;52.532;13.640;2023-07-08T06:49:04;22.20;99.90
39825;DHT22;25503;52.532;13.640;2023-07-08T06:51:34;22.30;99.90
39825;DHT22;25503;52.532;13.640;2023-07-08T06:53:59;22.40;99.90
39825;DHT22;25503;52.532;13.640;2023-07-08T06:56:29;22.50;99.90
39825;DHT22;25503;52.532;13.640;2023-07-08T06:58:55;22.70;99.90
39825;DHT22;25503;52.532;13.640;2023-07-08T07:01:20;22.80;99.90
39825;DHT22;25503;52.532;13.640;2023-07-08T07:03:46;22.90;99.90
39825;DHT22;25503;52.532;13.640;2023-07-08T07:06:12;23.10;99.90
39825;DHT22;25503;52.532;13.640;2023-07-08T07:08:37;23.20;99.90
39825;DHT22;25503;52.532;13.640;2023-07-08T07:11:03;23.40;99.90
39825;DHT22;25503;52.532;13.640;2023-07-08T07:13:28;23.50;99.90
39825;DHT22;25503;52.532;13.640;2023-07-08T07:15:54;23.60;99.90
39825;DHT22;25503;52.532;13.640;2023-07-08T07:18:20;23.80;99.90
39825;DHT22;25503;52.532;13.640;2023-07-08T07:20:49;23.90;99.90
39825;DHT22;25503;52.532;13.640;2023-07-08T07:23:16;24.00;99.90
39825;DHT22;25503;52.532;13.640;2023-07-08T07:25:41;24.10;99.90
39825;DHT22;25503;52.532;13.640;2023-07-08T07:28:07;24.20;99.90
39825;DHT22;25503;52.532;13.640;2023-07-08T07:30:33;24.40;99.90
39825;DHT22;25503;52.532;13.640;2023-07-08T07:33:00;24.50;99.90
39825;DHT22;25503;52.532;13.640;2023-07-08T07:35:25;24.70;99.90
39825;DHT22;25503;52.532;13.640;2023-07-08T07:37:51;24.70;99.90
39825;DHT22;25503;52.532;13.640;2023-07-08T07:40:16;24.80;99.90
39825;DHT22;25503;52.532;13.640;2023-07-08T07:42:45;24.90;99.90
39825;DHT22;25503;52.532;13.640;2023-07-08T07:45:11;25.00;99.90
39825;DHT22;25503;52.532;13.640;2023-07-08T07:47:37;25.10;99.90
39825;DHT22;25503;52.532;13.640;2023-07-08T07:50:04;25.30;99.90
39825;DHT22;25503;52.532;13.640;2023-07-08T07:52:30;25.40;99.90
39825;DHT22;25503;52.532;13.640;2023-07-08T07:54:56;25.50;99.90
39825;DHT22;25503;52.532;13.640;2023-07-08T07:57:22;25.70;99.90
39825;DHT22;25503;52.532;13.640;2023-07-08T07:59:48;25.80;99.90
39825;DHT22;25503;52.532;13.640;2023-07-08T08:02:14;25.90;99.90
39825;DHT22;25503;52.532;13.640;2023-07-08T08:04:40;26.00;99.90
39825;DHT22;25503;52.532;13.640;2023-07-08T08:07:05;26.20;99.90
39825;DHT22;25503;52.532;13.640;2023-07-08T08:09:31;26.30;99.90
39825;DHT22;25503;52.532;13.640;2023-07-08T08:11:57;26.40;99.90
39825;DHT22;25503;52.532;13.640;2023-07-08T08:14:22;26.60;99.90
39825;DHT22;25503;52.532;13.640;2023-07-08T08:16:48;26.80;99.90
39825;DHT22;25503;52.532;13.640;2023-07-08T08:19:14;26.90;99.90
39825;DHT22;25503;52.532;13.640;2023-07-08T08:21:39;27.10;99.90
39825;DHT22;25503;52.532;13.640;2023-07-08T08:24:05;27.30;99.90
39825;DHT22;25503;52.532;13.640;2023-07-08T08:26:31;27.50;99.90
39825;DHT22;25503;52.532;13.640;2023-07-08T08:28:56;27.70;99.90
39825;DHT22;25503;52.532;13.640;2023-07-08T08:31:22;27.90;99.90
39825;DHT22;25503;52.532;13.640;2023-07-08T08:33:48;28.10;99.90
39825;DHT22;25503;52.532;13.640;2023-07-08T08:36:13;28.20;99.90
39825;DHT22;25503;52.532;13.640;2023-07-08T08:38:39;28.50;99.90
39825;DHT22;25503;52.532;13.640;2023-07-08T08:41:13;28.60;99.90
39825;DHT22;25503;52.532;13.640;2023-07-08T08:43:39;28.70;99.90
39825;DHT22;25503;52.532;13.640;2023-07-08T08:46:12;28.80;99.90
39825;DHT22;25503;52.532;13.640;2023-07-08T08:51:54;29.20;99.90
39825;DHT22;25503;52.532;13.640;2023-07-08T08:54:21;29.40;99.90
39825;DHT22;25503;52.532;13.640;2023-07-08T08:59:27;29.70;99.90
39825;DHT22;25503;52.532;13.640;2023-07-08T09:01:55;29.80;99.90
39825;DHT22;25503;52.532;13.640;2023-07-08T09:04:29;29.90;98.30
39825;DHT22;25503;52.532;13.640;2023-07-08T09:07:04;30.00;98.40
39825;DHT22;25503;52.532;13.640;2023-07-08T09:12:05;30.30;99.20
39825;DHT22;25503;52.532;13.640;2023-07-08T09:14:34;30.50;98.80
39825;DHT22;25503;52.532;13.640;2023-07-08T09:22:48;31.30;96.70
39825;DHT22;25503;52.532;13.640;2023-07-08T09:28:13;31.50;94.50
39825;DHT22;25503;52.532;13.640;2023-07-08T09:30:39;31.70;95.20
39825;DHT22;25503;52.532;13.640;2023-07-08T09:33:06;31.80;94.30
39825;DHT22;25503;52.532;13.640;2023-07-08T09:35:42;32.10;94.50
39825;DHT22;25503;52.532;13.640;2023-07-08T09:38:13;32.30;93.80
39825;DHT22;25503;52.532;13.640;2023-07-08T09:40:39;32.40;92.60
39825;DHT22;25503;52.532;13.640;2023-07-08T09:45:44;32.20;93.10
39825;DHT22;25503;52.532;13.640;2023-07-08T09:48:24;32.30;93.20
39825;DHT22;25503;52.532;13.640;2023-07-08T09:50:52;32.20;92.10
39825;DHT22;25503;52.532;13.640;2023-07-08T09:53:18;32.30;92.50
39825;DHT22;25503;52.532;13.640;2023-07-08T09:55:45;32.40;92.20
39825;DHT22;25503;52.532;13.640;2023-07-08T10:00:59;32.30;91.10
39825;DHT22;25503;52.532;13.640;2023-07-08T10:05:55;32.70;91.70
39825;DHT22;25503;52.532;13.640;2023-07-08T10:08:36;33.00;91.60
39825;DHT22;25503;52.532;13.640;2023-07-08T10:13:53;33.40;90.80
39825;DHT22;25503;52.532;13.640;2023-07-08T10:16:31;33.70;91.80
39825;DHT22;25503;52.532;13.640;2023-07-08T10:18:57;33.80;91.30
39825;DHT22;25503;52.532;13.640;2023-07-08T10:24:27;33.90;87.30
39825;DHT22;25503;52.532;13.640;2023-07-08T10:27:15;33.70;89.00
39825;DHT22;25503;52.532;13.640;2023-07-08T10:30:02;33.80;89.30
39825;DHT22;25503;52.532;13.640;2023-07-08T10:35:20;33.80;87.10
39825;DHT22;25503;52.532;13.640;2023-07-08T10:40:36;33.80;87.50
39825;DHT22;25503;52.532;13.640;2023-07-08T10:54:40;34.60;86.40
39825;DHT22;25503;52.532;13.640;2023-07-08T11:00:03;34.40;84.00
39825;DHT22;25503;52.532;13.640;2023-07-08T11:06:12;34.20;83.00
39825;DHT22;25503;52.532;13.640;2023-07-08T11:08:44;34.40;83.20
39825;DHT22;25503;52.532;13.640;2023-07-08T11:11:34;34.40;83.10
39825;DHT22;25503;52.532;13.640;2023-07-08T11:14:13;34.60;85.70
39825;DHT22;25503;52.532;13.640;2023-07-08T11:19:24;35.10;83.20
39825;DHT22;25503;52.532;13.640;2023-07-08T11:21:54;35.30;83.20
39825;DHT22;25503;52.532;13.640;2023-07-08T11:24:35;35.40;83.30
39825;DHT22;25503;52.532;13.640;2023-07-08T11:27:21;35.40;82.20
39825;DHT22;25503;52.532;13.640;2023-07-08T11:29:54;35.10;79.40
39825;DHT22;25503;52.532;13.640;2023-07-08T11:32:23;34.80;80.20
39825;DHT22;25503;52.532;13.640;2023-07-08T11:34:51;34.80;81.10
39825;DHT22;25503;52.532;13.640;2023-07-08T11:37:19;34.70;80.70
39825;DHT22;25503;52.532;13.640;2023-07-08T11:39:54;34.70;80.00
39825;DHT22;25503;52.532;13.640;2023-07-08T11:42:42;34.70;79.20
39825;DHT22;25503;52.532;13.640;2023-07-08T11:45:32;34.60;82.40
39825;DHT22;25503;52.532;13.640;2023-07-08T11:48:12;34.60;80.60
39825;DHT22;25503;52.532;13.640;2023-07-08T11:50:41;34.60;79.50
39825;DHT22;25503;52.532;13.640;2023-07-08T11:53:10;34.50;81.90
39825;DHT22;25503;52.532;13.640;2023-07-08T11:55:43;34.70;81.60
39825;DHT22;25503;52.532;13.640;2023-07-08T11:58:24;34.90;83.10
39825;DHT22;25503;52.532;13.640;2023-07-08T12:09:25;34.80;81.90
39825;DHT22;25503;52.532;13.640;2023-07-08T12:11:55;34.80;83.40
39825;DHT22;25503;52.532;13.640;2023-07-08T12:14:23;34.90;79.60
39825;DHT22;25503;52.532;13.640;2023-07-08T12:16:49;34.90;80.30
39825;DHT22;25503;52.532;13.640;2023-07-08T12:19:17;35.00;80.90
39825;DHT22;25503;52.532;13.640;2023-07-08T12:21:43;35.00;80.10
39825;DHT22;25503;52.532;13.640;2023-07-08T12:24:13;35.10;79.20
39825;DHT22;25503;52.532;13.640;2023-07-08T12:26:40;35.20;79.50
39825;DHT22;25503;52.532;13.640;2023-07-08T12:29:07;35.30;78.60
39825;DHT22;25503;52.532;13.640;2023-07-08T12:31:33;35.30;80.30
39825;DHT22;25503;52.532;13.640;2023-07-08T12:33:59;35.40;79.60
39825;DHT22;25503;52.532;13.640;2023-07-08T12:36:28;35.50;79.30
39825;DHT22;25503;52.532;13.640;2023-07-08T12:38:56;35.50;78.70
39825;DHT22;25503;52.532;13.640;2023-07-08T12:41:32;35.40;77.70
39825;DHT22;25503;52.532;13.640;2023-07-08T12:44:00;35.40;79.60
39825;DHT22;25503;52.532;13.640;2023-07-08T12:46:26;35.20;78.60
39825;DHT22;25503;52.532;13.640;2023-07-08T12:48:52;35.00;80.70
39825;DHT22;25503;52.532;13.640;2023-07-08T12:51:20;35.10;79.60
39825;DHT22;25503;52.532;13.640;2023-07-08T12:53:49;35.00;78.70
39825;DHT22;25503;52.532;13.640;2023-07-08T12:56:16;35.00;78.60
39825;DHT22;25503;52.532;13.640;2023-07-08T12:58:48;34.90;78.80
39825;DHT22;25503;52.532;13.640;2023-07-08T13:01:24;34.80;81.50
39825;DHT22;25503;52.532;13.640;2023-07-08T13:03:53;34.70;78.90
39825;DHT22;25503;52.532;13.640;2023-07-08T13:06:23;34.70;81.80
39825;DHT22;25503;52.532;13.640;2023-07-08T13:08:49;34.50;77.80
39825;DHT22;25503;52.532;13.640;2023-07-08T13:11:19;34.40;79.10
39825;DHT22;25503;52.532;13.640;2023-07-08T13:13:53;34.30;79.30
39825;DHT22;25503;52.532;13.640;2023-07-08T13:16:19;34.20;79.80
39825;DHT22;25503;52.532;13.640;2023-07-08T13:18:45;33.90;80.50
39825;DHT22;25503;52.532;13.640;2023-07-08T13:21:15;33.90;78.30
39825;DHT22;25503;52.532;13.640;2023-07-08T13:23:42;33.80;77.80
39825;DHT22;25503;52.532;13.640;2023-07-08T13:26:19;33.70;78.70
39825;DHT22;25503;52.532;13.640;2023-07-08T13:28:46;33.80;77.10
39825;DHT22;25503;52.532;13.640;2023-07-08T13:31:19;33.90;78.30
39825;DHT22;25503;52.532;13.640;2023-07-08T13:33:47;33.90;79.30
39825;DHT22;25503;52.532;13.640;2023-07-08T13:36:14;33.90;79.60
39825;DHT22;25503;52.532;13.640;2023-07-08T13:38:41;33.90;78.90
39825;DHT22;25503;52.532;13.640;2023-07-08T13:41:07;33.90;82.70
39825;DHT22;25503;52.532;13.640;2023-07-08T13:43:36;33.80;82.00
39825;DHT22;25503;52.532;13.640;2023-07-08T13:46:03;33.80;81.40
39825;DHT22;25503;52.532;13.640;2023-07-08T13:48:42;33.80;80.30
39825;DHT22;25503;52.532;13.640;2023-07-08T13:53:48;33.30;79.50
39825;DHT22;25503;52.532;13.640;2023-07-08T13:56:32;33.10;80.50
39825;DHT22;25503;52.532;13.640;2023-07-08T13:59:30;33.10;82.60
39825;DHT22;25503;52.532;13.640;2023-07-08T14:01:57;33.10;80.50
39825;DHT22;25503;52.532;13.640;2023-07-08T14:04:32;33.10;83.00
39825;DHT22;25503;52.532;13.640;2023-07-08T14:06:58;33.10;82.20
39825;DHT22;25503;52.532;13.640;2023-07-08T14:09:24;33.00;81.30
39825;DHT22;25503;52.532;13.640;2023-07-08T14:11:51;33.00;78.50
39825;DHT22;25503;52.532;13.640;2023-07-08T14:14:17;32.90;78.90
39825;DHT22;25503;52.532;13.640;2023-07-08T14:16:49;32.70;79.70
39825;DHT22;25503;52.532;13.640;2023-07-08T14:21:50;32.50;78.40
39825;DHT22;25503;52.532;13.640;2023-07-08T14:24:16;32.50;79.90
39825;DHT22;25503;52.532;13.640;2023-07-08T14:26:43;32.50;78.50
39825;DHT22;25503;52.532;13.640;2023-07-08T14:29:10;32.40;79.40
39825;DHT22;25503;52.532;13.640;2023-07-08T14:31:35;32.50;80.70
39825;DHT22;25503;52.532;13.640;2023-07-08T14:34:06;32.50;80.70
39825;DHT22;25503;52.532;13.640;2023-07-08T14:36:32;32.50;81.40
39825;DHT22;25503;52.532;13.640;2023-07-08T14:38:58;32.30;80.70
39825;DHT22;25503;52.532;13.640;2023-07-08T14:41:24;32.30;81.40
39825;DHT22;25503;52.532;13.640;2023-07-08T14:43:51;32.20;81.30
39825;DHT22;25503;52.532;13.640;2023-07-08T14:46:17;32.10;79.90
39825;DHT22;25503;52.532;13.640;2023-07-08T14:48:42;31.90;81.30
39825;DHT22;25503;52.532;13.640;2023-07-08T14:51:08;31.80;79.20
39825;DHT22;25503;52.532;13.640;2023-07-08T14:53:34;31.70;81.00
39825;DHT22;25503;52.532;13.640;2023-07-08T14:56:01;31.60;80.70
39825;DHT22;25503;52.532;13.640;2023-07-08T14:58:32;31.60;79.80
39825;DHT22;25503;52.532;13.640;2023-07-08T15:01:17;31.60;82.10
39825;DHT22;25503;52.532;13.640;2023-07-08T15:03:44;31.50;77.00
39825;DHT22;25503;52.532;13.640;2023-07-08T15:06:10;31.50;80.10
39825;DHT22;25503;52.532;13.640;2023-07-08T15:08:36;31.50;80.60
39825;DHT22;25503;52.532;13.640;2023-07-08T15:11:02;31.50;79.30
39825;DHT22;25503;52.532;13.640;2023-07-08T15:13:31;31.40;80.10
39825;DHT22;25503;52.532;13.640;2023-07-08T15:15:58;31.30;80.40
39825;DHT22;25503;52.532;13.640;2023-07-08T15:18:23;31.30;82.10
39825;DHT22;25503;52.532;13.640;2023-07-08T15:20:49;31.30;82.20
39825;DHT22;25503;52.532;13.640;2023-07-08T15:23:16;31.30;82.60
39825;DHT22;25503;52.532;13.640;2023-07-08T15:25:43;31.30;80.80
39825;DHT22;25503;52.532;13.640;2023-07-08T15:28:18;31.20;80.10
39825;DHT22;25503;52.532;13.640;2023-07-08T15:30:44;31.20;79.00
39825;DHT22;25503;52.532;13.640;2023-07-08T15:33:13;31.10;80.20
39825;DHT22;25503;52.532;13.640;2023-07-08T15:35:39;31.10;82.30
39825;DHT22;25503;52.532;13.640;2023-07-08T15:38:05;31.10;80.70
39825;DHT22;25503;52.532;13.640;2023-07-08T15:40:32;31.10;83.10
39825;DHT22;25503;52.532;13.640;2023-07-08T15:43:01;31.10;80.60
39825;DHT22;25503;52.532;13.640;2023-07-08T15:45:35;31.10;81.20
39825;DHT22;25503;52.532;13.640;2023-07-08T15:48:02;31.10;80.90
39825;DHT22;25503;52.532;13.640;2023-07-08T15:50:28;31.10;79.80
39825;DHT22;25503;52.532;13.640;2023-07-08T15:52:55;30.90;80.40
39825;DHT22;25503;52.532;13.640;2023-07-08T15:55:28;30.90;79.60
39825;DHT22;25503;52.532;13.640;2023-07-08T15:58:01;30.80;80.30
39825;DHT22;25503;52.532;13.640;2023-07-08T16:00:29;30.70;80.90
39825;DHT22;25503;52.532;13.640;2023-07-08T16:02:57;30.70;79.80
39825;DHT22;25503;52.532;13.640;2023-07-08T16:05:24;30.70;78.40
39825;DHT22;25503;52.532;13.640;2023-07-08T16:07:52;30.60;80.50
39825;DHT22;25503;52.532;13.640;2023-07-08T16:10:19;30.60;80.70
39825;DHT22;25503;52.532;13.640;2023-07-08T16:12:45;30.60;81.80
39825;DHT22;25503;52.532;13.640;2023-07-08T16:15:24;30.60;81.70
39825;DHT22;25503;52.532;13.640;2023-07-08T16:17:51;30.50;81.00
39825;DHT22;25503;52.532;13.640;2023-07-08T16:20:22;30.50;81.50
39825;DHT22;25503;52.532;13.640;2023-07-08T16:22:48;30.50;81.40
39825;DHT22;25503;52.532;13.640;2023-07-08T16:25:15;30.40;81.30
39825;DHT22;25503;52.532;13.640;2023-07-08T16:27:43;30.40;82.00
39825;DHT22;25503;52.532;13.640;2023-07-08T16:30:16;30.40;83.10
39825;DHT22;25503;52.532;13.640;2023-07-08T16:32:44;30.30;81.20
39825;DHT22;25503;52.532;13.640;2023-07-08T16:35:12;30.20;81.80